Time;durP1;ratioP1;P1;durP2;ratioP2;P2;SDS_P1;SDS_P2;PMS_P1;PMS_P2;Temp;Humidity;BMP_temperature;BMP_pressure;BME280_temperature;BME280_humidity;BME280_pressure;Samples;Min_cycle;Max_cycle;Signal;HPM_P1;HPM_P2
2020/08/18 04:11:48;;;;;;;4.750001;4.35;;;;;;;16.11;96.26465;94869.19;;;;
2020/08/18 04:12:51;;;;;;;4.750001;4.35;;;;;;;16.11;96.26465;94869.19;;;;
2020/08/18 04:13:58;;;;;;;4.750001;4.35;;;;;;;16.11;96.26465;94869.19;;;;
2020/08/18 04:15:08;;;;;;;4.750001;4.35;;;;;;;16.11;96.26465;94869.19;;;;
2020/08/18 04:16:27;;;;;;;4.750001;4.35;;;;;;;16.11;96.26465;94869.19;;;;
2020/08/18 04:17:42;;;;;;;4.750001;4.35;;;;;;;16.11;96.26465;94869.19;;;;
2020/08/18 04:18:47;;;;;;;4.750001;4.35;;;;;;;16.11;96.26465;94869.19;;;;
2020/08/18 04:19:54;;;;;;;4.750001;4.35;;;;;;;16.11;96.26465;94869.19;;;;
2020/08/18 04:21:03;;;;;;;4.750001;4.35;;;;;;;16.11;96.26465;94869.19;;;;
2020/08/18 04:22:12;;;;;;;5.299999;4.9;;;;;;;16.03;96.9375;94883.37;;;;
2020/08/18 04:23:24;;;;;;;5.299999;4.9;;;;;;;16.03;96.9375;94883.37;;;;
2020/08/18 04:24:29;;;;;;;5.299999;4.9;;;;;;;16.03;96.9375;94883.37;;;;
2020/08/18 04:25:35;;;;;;;5.299999;4.9;;;;;;;16.03;96.9375;94883.37;;;;
2020/08/18 04:26:41;;;;;;;5.299999;4.9;;;;;;;16.03;96.9375;94883.37;;;;
2020/08/18 04:27:52;;;;;;;5.299999;4.9;;;;;;;16.03;96.9375;94883.37;;;;
2020/08/18 04:29:05;;;;;;;5.299999;4.9;;;;;;;16.03;96.9375;94883.37;;;;
2020/08/18 04:30:20;;;;;;;5.299999;4.9;;;;;;;16.03;96.9375;94883.37;;;;
2020/08/18 04:31:27;;;;;;;5.299999;4.9;;;;;;;16.03;96.9375;94883.37;;;;
2020/08/18 04:32:40;;;;;;;6.15;4.85;;;;;;;16.01;97.20215;94887.33;;;;
2020/08/18 04:33:46;;;;;;;6.15;4.85;;;;;;;16.01;97.20215;94887.33;;;;
2020/08/18 04:34:59;;;;;;;6.15;4.85;;;;;;;16.01;97.20215;94887.33;;;;
2020/08/18 04:36:17;;;;;;;6.15;4.85;;;;;;;16.01;97.20215;94887.33;;;;
2020/08/18 04:37:28;;;;;;;6.15;4.85;;;;;;;16.01;97.20215;94887.33;;;;
2020/08/18 04:38:34;;;;;;;6.15;4.85;;;;;;;16.01;97.20215;94887.33;;;;
2020/08/18 04:39:43;;;;;;;6.15;4.85;;;;;;;16.01;97.20215;94887.33;;;;
2020/08/18 04:41:00;;;;;;;6.15;4.85;;;;;;;16.01;97.20215;94887.33;;;;
2020/08/18 04:42:16;;;;;;;6.15;4.85;;;;;;;16.01;97.20215;94887.33;;;;
2020/08/18 04:43:23;;;;;;;4.85;4.35;;;;;;;16.21;97.33105;94895;;;;
2020/08/18 04:44:35;;;;;;;4.85;4.35;;;;;;;16.21;97.33105;94895;;;;
2020/08/18 04:45:48;;;;;;;4.85;4.35;;;;;;;16.21;97.33105;94895;;;;
2020/08/18 04:47:02;;;;;;;4.85;4.35;;;;;;;16.21;97.33105;94895;;;;
2020/08/18 04:48:13;;;;;;;4.85;4.35;;;;;;;16.21;97.33105;94895;;;;
2020/08/18 04:49:23;;;;;;;4.85;4.35;;;;;;;16.21;97.33105;94895;;;;
2020/08/18 04:50:31;;;;;;;4.85;4.35;;;;;;;16.21;97.33105;94895;;;;
2020/08/18 04:51:36;;;;;;;4.85;4.35;;;;;;;16.21;97.33105;94895;;;;
2020/08/18 04:52:41;;;;;;;4.85;4.35;;;;;;;16.21;97.33105;94895;;;;
2020/08/18 04:53:50;;;;;;;4.8;4.3;;;;;;;16.48;97.12012;94899.67;;;;
2020/08/18 04:55:16;;;;;;;4.8;4.3;;;;;;;16.48;97.12012;94899.67;;;;
2020/08/18 04:56:26;;;;;;;4.8;4.3;;;;;;;16.48;97.12012;94899.67;;;;
2020/08/18 04:57:35;;;;;;;4.8;4.3;;;;;;;16.48;97.12012;94899.67;;;;
2020/08/18 04:58:41;;;;;;;4.8;4.3;;;;;;;16.48;97.12012;94899.67;;;;
2020/08/18 04:59:47;;;;;;;4.8;4.3;;;;;;;16.48;97.12012;94899.67;;;;
2020/08/18 05:00:55;;;;;;;4.8;4.3;;;;;;;16.48;97.12012;94899.67;;;;
2020/08/18 05:02:00;;;;;;;4.8;4.3;;;;;;;16.48;97.12012;94899.67;;;;
2020/08/18 05:03:06;;;;;;;4.8;4.3;;;;;;;16.48;97.12012;94899.67;;;;
2020/08/18 05:04:15;;;;;;;4.8;4.3;;;;;;;16.48;97.12012;94899.67;;;;
2020/08/18 05:05:20;;;;;;;4.8;4.3;;;;;;;16.48;97.12012;94899.67;;;;
2020/08/18 05:06:44;;;;;;;4.8;4.3;;;;;;;16.48;97.12012;94899.67;;;;
2020/08/18 05:07:52;;;;;;;4.8;4.3;;;;;;;16.48;97.12012;94899.67;;;;
2020/08/18 05:09:11;;;;;;;4.8;4.3;;;;;;;16.48;97.12012;94899.67;;;;
2020/08/18 05:10:41;;;;;;;4.8;4.3;;;;;;;16.48;97.12012;94899.67;;;;
2020/08/18 05:11:52;;;;;;;4.8;4.3;;;;;;;16.48;97.12012;94899.67;;;;
2020/08/18 05:13:09;;;;;;;4.8;4.3;;;;;;;16.48;97.12012;94899.67;;;;
2020/08/18 05:14:17;;;;;;;4.8;4.3;;;;;;;16.48;97.12012;94899.67;;;;
2020/08/18 05:15:24;;;;;;;4.8;4.3;;;;;;;16.48;97.12012;94899.67;;;;
2020/08/18 05:16:29;;;;;;;4.8;4.3;;;;;;;16.48;97.12012;94899.67;;;;
2020/08/18 05:17:35;;;;;;;4.8;4.3;;;;;;;16.48;97.12012;94899.67;;;;
2020/08/18 05:18:41;;;;;;;4.8;4.3;;;;;;;16.48;97.12012;94899.67;;;;
2020/08/18 05:19:43;;;;;;;4.8;4.3;;;;;;;16.48;97.12012;94899.67;;;;
2020/08/18 05:20:54;;;;;;;4.8;4.3;;;;;;;16.48;97.12012;94899.67;;;;
2020/08/18 05:22:19;;;;;;;4.8;4.3;;;;;;;16.48;97.12012;94899.67;;;;
2020/08/18 05:23:41;;;;;;;4.8;4.3;;;;;;;16.48;97.12012;94899.67;;;;
2020/08/18 05:24:56;;;;;;;4.8;4.3;;;;;;;16.48;97.12012;94899.67;;;;
2020/08/18 05:26:14;;;;;;;3.85;3.5;;;;;;;17.18;96.00098;94927.23;;;;
2020/08/18 05:27:20;;;;;;;3.85;3.5;;;;;;;17.18;96.00098;94927.23;;;;
2020/08/18 05:28:34;;;;;;;3.85;3.5;;;;;;;17.18;96.00098;94927.23;;;;
2020/08/18 05:29:59;;;;;;;3.85;3.5;;;;;;;17.18;96.00098;94927.23;;;;
2020/08/18 05:31:29;;;;;;;3.85;3.5;;;;;;;17.18;96.00098;94927.23;;;;
2020/08/18 05:32:46;;;;;;;3.85;3.5;;;;;;;17.18;96.00098;94927.23;;;;
2020/08/18 05:33:49;;;;;;;3.85;3.5;;;;;;;17.18;96.00098;94927.23;;;;
2020/08/18 05:35:15;;;;;;;3.85;3.5;;;;;;;17.18;96.00098;94927.23;;;;
2020/08/18 05:36:28;;;;;;;3.85;3.5;;;;;;;17.18;96.00098;94927.23;;;;
2020/08/18 05:37:34;;;;;;;3.85;3.5;;;;;;;17.18;96.00098;94927.23;;;;
2020/08/18 05:38:44;;;;;;;3.85;3.5;;;;;;;17.18;96.00098;94927.23;;;;
2020/08/18 05:39:50;;;;;;;3.85;3.5;;;;;;;17.18;96.00098;94927.23;;;;
2020/08/18 05:40:58;;;;;;;3.85;3.5;;;;;;;17.18;96.00098;94927.23;;;;
2020/08/18 05:42:09;;;;;;;3.85;3.5;;;;;;;17.18;96.00098;94927.23;;;;
2020/08/18 05:43:13;;;;;;;3.85;3.5;;;;;;;17.18;96.00098;94927.23;;;;
2020/08/18 05:44:38;;;;;;;3.85;3.5;;;;;;;17.18;96.00098;94927.23;;;;
2020/08/18 05:45:46;;;;;;;3.85;3.5;;;;;;;17.18;96.00098;94927.23;;;;
2020/08/18 05:47:00;;;;;;;3.85;3.5;;;;;;;17.18;96.00098;94927.23;;;;
2020/08/18 05:48:18;;;;;;;4.3;3.8;;;;;;;17.32;95.69727;94930.14;;;;
2020/08/18 05:49:31;;;;;;;4.3;3.8;;;;;;;17.32;95.69727;94930.14;;;;
2020/08/18 05:50:38;;;;;;;4.3;3.8;;;;;;;17.32;95.69727;94930.14;;;;
2020/08/18 05:51:42;;;;;;;4.3;3.8;;;;;;;17.32;95.69727;94930.14;;;;
2020/08/18 05:53:03;;;;;;;4.3;3.8;;;;;;;17.32;95.69727;94930.14;;;;
2020/08/18 05:54:30;;;;;;;4.3;3.8;;;;;;;17.32;95.69727;94930.14;;;;
2020/08/18 05:55:47;;;;;;;4.3;3.8;;;;;;;17.32;95.69727;94930.14;;;;
2020/08/18 05:56:54;;;;;;;4.3;3.8;;;;;;;17.32;95.69727;94930.14;;;;
2020/08/18 05:58:03;;;;;;;4.3;3.8;;;;;;;17.32;95.69727;94930.14;;;;
2020/08/18 05:59:09;;;;;;;5.75;3.7;;;;;;;17.46;95.54395;94932.87;;;;
2020/08/18 06:00:25;;;;;;;5.75;3.7;;;;;;;17.46;95.54395;94932.87;;;;
2020/08/18 06:01:38;;;;;;;5.75;3.7;;;;;;;17.46;95.54395;94932.87;;;;
2020/08/18 06:02:45;;;;;;;5.75;3.7;;;;;;;17.46;95.54395;94932.87;;;;
2020/08/18 06:03:51;;;;;;;5.75;3.7;;;;;;;17.46;95.54395;94932.87;;;;
2020/08/18 06:04:56;;;;;;;5.75;3.7;;;;;;;17.46;95.54395;94932.87;;;;
2020/08/18 06:06:00;;;;;;;5.75;3.7;;;;;;;17.46;95.54395;94932.87;;;;
2020/08/18 06:07:05;;;;;;;5.75;3.7;;;;;;;17.46;95.54395;94932.87;;;;
2020/08/18 06:08:14;;;;;;;5.75;3.7;;;;;;;17.46;95.54395;94932.87;;;;
2020/08/18 06:09:22;;;;;;;5.75;3.7;;;;;;;17.46;95.54395;94932.87;;;;
2020/08/18 06:10:29;;;;;;;5.75;3.7;;;;;;;17.46;95.54395;94932.87;;;;
2020/08/18 06:11:47;;;;;;;5.75;3.7;;;;;;;17.46;95.54395;94932.87;;;;
2020/08/18 06:12:51;;;;;;;5.75;3.7;;;;;;;17.46;95.54395;94932.87;;;;
2020/08/18 06:13:57;;;;;;;5.75;3.7;;;;;;;17.46;95.54395;94932.87;;;;
2020/08/18 06:15:01;;;;;;;5.75;3.7;;;;;;;17.46;95.54395;94932.87;;;;
2020/08/18 06:16:10;;;;;;;5.75;3.7;;;;;;;17.46;95.54395;94932.87;;;;
2020/08/18 06:17:16;;;;;;;5.75;3.7;;;;;;;17.46;95.54395;94932.87;;;;
2020/08/18 06:18:25;;;;;;;5.75;3.7;;;;;;;17.46;95.54395;94932.87;;;;
2020/08/18 06:19:34;;;;;;;5.75;3.7;;;;;;;17.46;95.54395;94932.87;;;;
2020/08/18 06:20:46;;;;;;;5.75;3.7;;;;;;;17.46;95.54395;94932.87;;;;
2020/08/18 06:21:51;;;;;;;5.75;3.7;;;;;;;17.46;95.54395;94932.87;;;;
2020/08/18 06:22:56;;;;;;;5.75;3.7;;;;;;;17.46;95.54395;94932.87;;;;
2020/08/18 06:24:03;;;;;;;5.75;3.7;;;;;;;17.46;95.54395;94932.87;;;;
2020/08/18 06:25:09;;;;;;;5.75;3.7;;;;;;;17.46;95.54395;94932.87;;;;
2020/08/18 06:26:17;;;;;;;5.75;3.7;;;;;;;17.46;95.54395;94932.87;;;;
2020/08/18 06:27:25;;;;;;;5.75;3.7;;;;;;;17.46;95.54395;94932.87;;;;
2020/08/18 06:28:34;;;;;;;5.75;3.7;;;;;;;17.46;95.54395;94932.87;;;;
2020/08/18 06:29:42;;;;;;;5.75;3.7;;;;;;;17.46;95.54395;94932.87;;;;
2020/08/18 06:30:49;;;;;;;5.75;3.7;;;;;;;17.46;95.54395;94932.87;;;;
2020/08/18 06:31:54;;;;;;;5.75;3.7;;;;;;;17.46;95.54395;94932.87;;;;
2020/08/18 06:33:01;;;;;;;5.75;3.7;;;;;;;17.46;95.54395;94932.87;;;;
2020/08/18 06:34:11;;;;;;;5.75;3.7;;;;;;;17.46;95.54395;94932.87;;;;
2020/08/18 06:35:17;;;;;;;5.75;3.7;;;;;;;17.46;95.54395;94932.87;;;;
2020/08/18 06:36:24;;;;;;;5.75;3.7;;;;;;;17.46;95.54395;94932.87;;;;
2020/08/18 06:37:33;;;;;;;5.75;3.7;;;;;;;17.46;95.54395;94932.87;;;;
2020/08/18 06:38:39;;;;;;;5.75;3.7;;;;;;;17.46;95.54395;94932.87;;;;
2020/08/18 06:39:45;;;;;;;5.75;3.7;;;;;;;17.46;95.54395;94932.87;;;;
2020/08/18 06:40:50;;;;;;;5.75;3.7;;;;;;;17.46;95.54395;94932.87;;;;
2020/08/18 06:42:00;;;;;;;5.75;3.7;;;;;;;17.46;95.54395;94932.87;;;;
2020/08/18 08:42:13;;;;;;;2.95;2.3;;;;;;;24.9;71.29004;94986.82;;;;
2020/08/18 08:43:19;;;;;;;2.95;2.3;;;;;;;24.9;71.29004;94986.82;;;;
2020/08/18 08:44:27;;;;;;;2.95;2.3;;;;;;;24.9;71.29004;94986.82;;;;
2020/08/18 08:45:34;;;;;;;2.95;2.3;;;;;;;24.9;71.29004;94986.82;;;;
2020/08/18 08:46:40;;;;;;;2.95;2.3;;;;;;;24.9;71.29004;94986.82;;;;
2020/08/18 08:47:44;;;;;;;2.95;2.3;;;;;;;24.9;71.29004;94986.82;;;;
2020/08/18 08:48:50;;;;;;;2.95;2.3;;;;;;;24.9;71.29004;94986.82;;;;
2020/08/18 08:49:56;;;;;;;2.95;2.3;;;;;;;24.9;71.29004;94986.82;;;;
2020/08/18 08:50:58;;;;;;;2.95;2.3;;;;;;;24.9;71.29004;94986.82;;;;
2020/08/18 08:52:05;;;;;;;2.95;2.3;;;;;;;24.9;71.29004;94986.82;;;;
2020/08/18 08:53:18;;;;;;;2.95;2.3;;;;;;;24.9;71.29004;94986.82;;;;
2020/08/18 08:54:24;;;;;;;2.95;2.3;;;;;;;24.9;71.29004;94986.82;;;;
2020/08/18 08:55:32;;;;;;;2.95;2.3;;;;;;;24.9;71.29004;94986.82;;;;
2020/08/18 08:56:38;;;;;;;2.95;2.3;;;;;;;24.9;71.29004;94986.82;;;;
2020/08/18 08:57:43;;;;;;;2.95;2.3;;;;;;;24.9;71.29004;94986.82;;;;
2020/08/18 08:58:48;;;;;;;2.95;2.3;;;;;;;24.9;71.29004;94986.82;;;;
2020/08/18 08:59:53;;;;;;;2.95;2.3;;;;;;;24.9;71.29004;94986.82;;;;
2020/08/18 09:00:59;;;;;;;2.95;2.3;;;;;;;24.9;71.29004;94986.82;;;;
2020/08/18 09:02:07;;;;;;;2.95;2.3;;;;;;;24.9;71.29004;94986.82;;;;
2020/08/18 09:03:21;;;;;;;2.95;2.3;;;;;;;24.9;71.29004;94986.82;;;;
2020/08/18 09:04:27;;;;;;;2.95;2.3;;;;;;;24.9;71.29004;94986.82;;;;
2020/08/18 09:05:32;;;;;;;2.95;2.3;;;;;;;24.9;71.29004;94986.82;;;;
2020/08/18 09:06:39;;;;;;;2.95;2.3;;;;;;;24.9;71.29004;94986.82;;;;
2020/08/18 09:07:44;;;;;;;2.95;2.3;;;;;;;24.9;71.29004;94986.82;;;;
2020/08/18 09:08:47;;;;;;;2.95;2.3;;;;;;;24.9;71.29004;94986.82;;;;
2020/08/18 09:09:52;;;;;;;2.95;2.3;;;;;;;24.9;71.29004;94986.82;;;;
2020/08/18 09:10:58;;;;;;;2.95;2.3;;;;;;;24.9;71.29004;94986.82;;;;
2020/08/18 09:12:04;;;;;;;2.95;2.3;;;;;;;24.9;71.29004;94986.82;;;;
2020/08/18 09:13:10;;;;;;;2.95;2.3;;;;;;;24.9;71.29004;94986.82;;;;
2020/08/18 09:14:16;;;;;;;2.95;2.3;;;;;;;24.9;71.29004;94986.82;;;;
2020/08/18 09:15:23;;;;;;;2.95;2.3;;;;;;;24.9;71.29004;94986.82;;;;
2020/08/18 09:16:30;;;;;;;2.95;2.3;;;;;;;24.9;71.29004;94986.82;;;;
2020/08/18 09:17:35;;;;;;;2.95;2.3;;;;;;;24.9;71.29004;94986.82;;;;
2020/08/18 09:18:40;;;;;;;2.95;2.3;;;;;;;24.9;71.29004;94986.82;;;;
2020/08/18 09:19:45;;;;;;;2.95;2.3;;;;;;;24.9;71.29004;94986.82;;;;
2020/08/18 09:20:51;;;;;;;2.95;2.3;;;;;;;24.9;71.29004;94986.82;;;;
2020/08/18 09:21:57;;;;;;;2.95;2.3;;;;;;;24.9;71.29004;94986.82;;;;
2020/08/18 09:23:02;;;;;;;2.95;2.3;;;;;;;24.9;71.29004;94986.82;;;;
2020/08/18 09:24:07;;;;;;;2.95;2.3;;;;;;;24.9;71.29004;94986.82;;;;
2020/08/18 09:25:13;;;;;;;2.95;2.3;;;;;;;24.9;71.29004;94986.82;;;;
2020/08/18 13:57:33;;;;;;;2.1;1.9;;;;;;;35.25;35.20313;94841.4;;;;
2020/08/18 13:58:39;;;;;;;2.1;1.9;;;;;;;35.25;35.20313;94841.4;;;;
2020/08/18 13:59:46;;;;;;;2.1;1.9;;;;;;;35.25;35.20313;94841.4;;;;
2020/08/18 14:00:50;;;;;;;2.1;1.9;;;;;;;35.25;35.20313;94841.4;;;;
2020/08/18 14:01:55;;;;;;;2.1;1.9;;;;;;;35.25;35.20313;94841.4;;;;
2020/08/18 14:03:41;;;;;;;2.1;1.9;;;;;;;35.25;35.20313;94841.4;;;;
2020/08/18 14:04:44;;;;;;;2.1;1.9;;;;;;;35.25;35.20313;94841.4;;;;
2020/08/18 14:05:48;;;;;;;2.1;1.9;;;;;;;35.25;35.20313;94841.4;;;;
2020/08/18 14:06:57;;;;;;;2.1;1.9;;;;;;;35.25;35.20313;94841.4;;;;
2020/08/18 14:08:02;;;;;;;2.1;1.9;;;;;;;35.25;35.20313;94841.4;;;;
2020/08/18 14:09:03;;;;;;;2.1;1.9;;;;;;;35.25;35.20313;94841.4;;;;
2020/08/18 14:10:09;;;;;;;2.1;1.9;;;;;;;35.25;35.20313;94841.4;;;;
2020/08/18 14:11:14;;;;;;;2.1;1.9;;;;;;;35.25;35.20313;94841.4;;;;
2020/08/18 14:12:21;;;;;;;2.1;1.9;;;;;;;35.25;35.20313;94841.4;;;;
2020/08/18 14:13:27;;;;;;;2.1;1.9;;;;;;;35.25;35.20313;94841.4;;;;
2020/08/18 14:14:33;;;;;;;2.1;1.9;;;;;;;35.25;35.20313;94841.4;;;;
2020/08/18 14:15:38;;;;;;;2.1;1.9;;;;;;;35.25;35.20313;94841.4;;;;
2020/08/18 14:16:44;;;;;;;2.1;1.9;;;;;;;35.25;35.20313;94841.4;;;;
2020/08/18 14:17:48;;;;;;;2.1;1.9;;;;;;;35.25;35.20313;94841.4;;;;
2020/08/18 14:18:55;;;;;;;2.1;1.9;;;;;;;35.25;35.20313;94841.4;;;;
2020/08/18 14:20:00;;;;;;;2.1;1.9;;;;;;;35.25;35.20313;94841.4;;;;
2020/08/18 14:21:07;;;;;;;2.1;1.9;;;;;;;35.25;35.20313;94841.4;;;;
2020/08/18 14:22:13;;;;;;;2.1;1.9;;;;;;;35.25;35.20313;94841.4;;;;
2020/08/18 14:23:17;;;;;;;2.1;1.9;;;;;;;35.25;35.20313;94841.4;;;;
2020/08/18 14:24:22;;;;;;;2.1;1.9;;;;;;;35.25;35.20313;94841.4;;;;
2020/08/18 14:25:27;;;;;;;2.1;1.9;;;;;;;35.25;35.20313;94841.4;;;;
2020/08/18 14:26:33;;;;;;;2.1;1.9;;;;;;;35.25;35.20313;94841.4;;;;
2020/08/18 14:27:39;;;;;;;2.1;1.9;;;;;;;35.25;35.20313;94841.4;;;;
2020/08/18 14:28:45;;;;;;;2.1;1.9;;;;;;;35.25;35.20313;94841.4;;;;
2020/08/18 14:29:50;;;;;;;2.9;2.35;;;;;;;30.63;37.36328;94809.81;;;;
2020/08/18 14:30:55;;;;;;;2.9;2.35;;;;;;;30.63;37.36328;94809.81;;;;
2020/08/18 14:31:59;;;;;;;2.9;2.35;;;;;;;30.63;37.36328;94809.81;;;;
2020/08/18 14:33:04;;;;;;;2.9;2.35;;;;;;;30.63;37.36328;94809.81;;;;
2020/08/18 14:34:09;;;;;;;2.9;2.35;;;;;;;30.63;37.36328;94809.81;;;;
2020/08/18 14:35:13;;;;;;;2.9;2.35;;;;;;;30.63;37.36328;94809.81;;;;
2020/08/18 14:36:19;;;;;;;2.9;2.35;;;;;;;30.63;37.36328;94809.81;;;;
2020/08/18 14:37:25;;;;;;;2.9;2.35;;;;;;;30.63;37.36328;94809.81;;;;
2020/08/18 14:38:36;;;;;;;2.9;2.35;;;;;;;30.63;37.36328;94809.81;;;;
2020/08/18 14:39:40;;;;;;;2.9;2.35;;;;;;;30.63;37.36328;94809.81;;;;
2020/08/18 14:40:46;;;;;;;2.9;2.35;;;;;;;30.63;37.36328;94809.81;;;;
2020/08/18 14:41:50;;;;;;;2.9;2.35;;;;;;;30.63;37.36328;94809.81;;;;
2020/08/18 14:42:55;;;;;;;2.9;2.35;;;;;;;30.63;37.36328;94809.81;;;;
2020/08/18 14:44:01;;;;;;;2.9;2.35;;;;;;;30.63;37.36328;94809.81;;;;
2020/08/18 14:45:05;;;;;;;2.9;2.35;;;;;;;30.63;37.36328;94809.81;;;;
2020/08/18 14:46:10;;;;;;;2.9;2.35;;;;;;;30.63;37.36328;94809.81;;;;
2020/08/18 14:47:16;;;;;;;2.9;2.35;;;;;;;30.63;37.36328;94809.81;;;;
2020/08/18 14:48:21;;;;;;;2.9;2.35;;;;;;;30.63;37.36328;94809.81;;;;
2020/08/18 14:49:26;;;;;;;2.9;2.35;;;;;;;30.63;37.36328;94809.81;;;;
2020/08/18 14:50:31;;;;;;;2.9;2.35;;;;;;;30.63;37.36328;94809.81;;;;
2020/08/18 14:51:36;;;;;;;2.9;2.35;;;;;;;30.63;37.36328;94809.81;;;;
2020/08/18 14:52:42;;;;;;;2.9;2.35;;;;;;;30.63;37.36328;94809.81;;;;
2020/08/18 14:53:48;;;;;;;2.9;2.35;;;;;;;30.63;37.36328;94809.81;;;;
2020/08/18 14:54:53;;;;;;;2.9;2.35;;;;;;;30.63;37.36328;94809.81;;;;
2020/08/18 14:55:56;;;;;;;2.9;2.35;;;;;;;30.63;37.36328;94809.81;;;;
2020/08/18 14:57:02;;;;;;;2.9;2.35;;;;;;;30.63;37.36328;94809.81;;;;
2020/08/18 14:58:08;;;;;;;2.9;2.35;;;;;;;30.63;37.36328;94809.81;;;;
2020/08/18 14:59:12;;;;;;;2.9;2.35;;;;;;;30.63;37.36328;94809.81;;;;
2020/08/18 15:00:19;;;;;;;2.9;2.35;;;;;;;30.63;37.36328;94809.81;;;;
2020/08/18 15:01:23;;;;;;;2.9;2.35;;;;;;;30.63;37.36328;94809.81;;;;
2020/08/18 15:02:29;;;;;;;2.9;2.35;;;;;;;30.63;37.36328;94809.81;;;;
2020/08/18 15:03:34;;;;;;;2.9;2.35;;;;;;;30.63;37.36328;94809.81;;;;
2020/08/18 15:04:39;;;;;;;2.9;2.35;;;;;;;30.63;37.36328;94809.81;;;;
2020/08/18 15:05:44;;;;;;;2.9;2.35;;;;;;;30.63;37.36328;94809.81;;;;
2020/08/18 15:06:51;;;;;;;2.9;2.35;;;;;;;30.63;37.36328;94809.81;;;;
2020/08/18 15:07:56;;;;;;;2.9;2.35;;;;;;;30.63;37.36328;94809.81;;;;
2020/08/18 15:09:02;;;;;;;2.9;2.35;;;;;;;30.63;37.36328;94809.81;;;;
2020/08/18 15:10:07;;;;;;;2.9;2.35;;;;;;;30.63;37.36328;94809.81;;;;
2020/08/18 15:11:12;;;;;;;2.9;2.35;;;;;;;30.63;37.36328;94809.81;;;;
2020/08/18 15:12:20;;;;;;;2.9;2.35;;;;;;;30.63;37.36328;94809.81;;;;
2020/08/18 15:13:29;;;;;;;2.9;2.35;;;;;;;30.63;37.36328;94809.81;;;;
2020/08/18 18:28:44;;;;;;;3;2.7;;;;;;;18.71;68.70801;94857.75;;;;
2020/08/18 18:29:49;;;;;;;3;2.7;;;;;;;18.71;68.70801;94857.75;;;;
2020/08/18 18:30:55;;;;;;;3;2.7;;;;;;;18.71;68.70801;94857.75;;;;
2020/08/18 18:32:00;;;;;;;3;2.7;;;;;;;18.71;68.70801;94857.75;;;;
2020/08/18 18:33:06;;;;;;;3;2.7;;;;;;;18.71;68.70801;94857.75;;;;
2020/08/18 18:34:12;;;;;;;3;2.7;;;;;;;18.71;68.70801;94857.75;;;;
2020/08/18 18:35:18;;;;;;;3;2.7;;;;;;;18.71;68.70801;94857.75;;;;
2020/08/18 18:36:25;;;;;;;3;2.7;;;;;;;18.71;68.70801;94857.75;;;;
2020/08/18 18:37:32;;;;;;;3;2.7;;;;;;;18.71;68.70801;94857.75;;;;
2020/08/18 18:38:41;;;;;;;3;2.7;;;;;;;18.71;68.70801;94857.75;;;;
2020/08/18 18:39:49;;;;;;;2.8;2.5;;;;;;;18.3;70.86914;94865.83;;;;
2020/08/18 18:40:55;;;;;;;2.8;2.5;;;;;;;18.3;70.86914;94865.83;;;;
2020/08/18 18:42:02;;;;;;;2.8;2.5;;;;;;;18.3;70.86914;94865.83;;;;
2020/08/18 18:43:09;;;;;;;2.8;2.5;;;;;;;18.3;70.86914;94865.83;;;;
2020/08/18 18:44:19;;;;;;;2.8;2.5;;;;;;;18.3;70.86914;94865.83;;;;
2020/08/18 18:45:24;;;;;;;2.8;2.5;;;;;;;18.3;70.86914;94865.83;;;;
2020/08/18 18:46:31;;;;;;;2.8;2.5;;;;;;;18.3;70.86914;94865.83;;;;
2020/08/18 18:47:36;;;;;;;2.8;2.5;;;;;;;18.3;70.86914;94865.83;;;;
2020/08/18 18:48:45;;;;;;;2.8;2.5;;;;;;;18.3;70.86914;94865.83;;;;
2020/08/18 18:49:50;;;;;;;2.8;2.5;;;;;;;18.3;70.86914;94865.83;;;;
2020/08/18 18:50:55;;;;;;;2.8;2.5;;;;;;;18.3;70.86914;94865.83;;;;
2020/08/18 18:52:02;;;;;;;2.8;2.5;;;;;;;18.3;70.86914;94865.83;;;;
2020/08/18 18:53:07;;;;;;;2.8;2.5;;;;;;;18.3;70.86914;94865.83;;;;
2020/08/18 18:54:18;;;;;;;2.8;2.5;;;;;;;18.3;70.86914;94865.83;;;;
2020/08/18 18:55:24;;;;;;;2.8;2.5;;;;;;;18.3;70.86914;94865.83;;;;
2020/08/18 18:56:33;;;;;;;2.8;2.5;;;;;;;18.3;70.86914;94865.83;;;;
2020/08/18 18:57:38;;;;;;;2.8;2.5;;;;;;;18.3;70.86914;94865.83;;;;
2020/08/18 18:58:43;;;;;;;2.8;2.5;;;;;;;18.3;70.86914;94865.83;;;;
2020/08/18 18:59:48;;;;;;;2.8;2.5;;;;;;;18.3;70.86914;94865.83;;;;
2020/08/18 19:00:52;;;;;;;2.8;2.5;;;;;;;18.3;70.86914;94865.83;;;;
2020/08/18 19:01:58;;;;;;;2.8;2.5;;;;;;;18.3;70.86914;94865.83;;;;
2020/08/18 19:03:07;;;;;;;2.8;2.5;;;;;;;18.3;70.86914;94865.83;;;;
2020/08/18 19:04:17;;;;;;;2.8;2.5;;;;;;;18.3;70.86914;94865.83;;;;
2020/08/18 19:05:22;;;;;;;2.8;2.5;;;;;;;18.3;70.86914;94865.83;;;;
2020/08/18 19:06:28;;;;;;;2.8;2.5;;;;;;;18.3;70.86914;94865.83;;;;
2020/08/18 19:07:34;;;;;;;2.8;2.5;;;;;;;18.3;70.86914;94865.83;;;;
2020/08/18 19:08:38;;;;;;;2.8;2.5;;;;;;;18.3;70.86914;94865.83;;;;
2020/08/18 19:09:44;;;;;;;2.8;2.5;;;;;;;18.3;70.86914;94865.83;;;;
2020/08/18 19:10:53;;;;;;;2.8;2.5;;;;;;;18.3;70.86914;94865.83;;;;
2020/08/18 19:11:59;;;;;;;3.25;2.6;;;;;;;18.02;73.84277;94887.25;;;;
2020/08/18 19:12:59;;;;;;;3.25;2.6;;;;;;;18.02;73.84277;94887.25;;;;
2020/08/18 19:14:04;;;;;;;3.25;2.6;;;;;;;18.02;73.84277;94887.25;;;;
2020/08/18 19:15:10;;;;;;;3.25;2.6;;;;;;;18.02;73.84277;94887.25;;;;
2020/08/18 19:16:18;;;;;;;3.25;2.6;;;;;;;18.02;73.84277;94887.25;;;;
2020/08/18 19:17:28;;;;;;;3.25;2.6;;;;;;;18.02;73.84277;94887.25;;;;
2020/08/18 19:18:28;;;;;;;3.25;2.6;;;;;;;18.02;73.84277;94887.25;;;;
2020/08/18 19:19:35;;;;;;;3.25;2.6;;;;;;;18.02;73.84277;94887.25;;;;
2020/08/18 19:20:39;;;;;;;3.25;2.6;;;;;;;18.02;73.84277;94887.25;;;;
2020/08/18 19:21:44;;;;;;;3.25;2.6;;;;;;;18.02;73.84277;94887.25;;;;
2020/08/18 19:22:53;;;;;;;3.8;2.5;;;;;;;17.91;75.15137;94898.44;;;;
2020/08/18 19:23:55;;;;;;;3.8;2.5;;;;;;;17.91;75.15137;94898.44;;;;
2020/08/18 19:24:58;;;;;;;3.8;2.5;;;;;;;17.91;75.15137;94898.44;;;;
2020/08/18 19:26:07;;;;;;;3.8;2.5;;;;;;;17.91;75.15137;94898.44;;;;
2020/08/18 19:27:08;;;;;;;3.8;2.5;;;;;;;17.91;75.15137;94898.44;;;;
2020/08/18 19:28:16;;;;;;;3.8;2.5;;;;;;;17.91;75.15137;94898.44;;;;
2020/08/18 19:29:21;;;;;;;3.8;2.5;;;;;;;17.91;75.15137;94898.44;;;;
2020/08/18 19:30:21;;;;;;;3.8;2.5;;;;;;;17.91;75.15137;94898.44;;;;
2020/08/18 19:31:28;;;;;;;3.8;2.5;;;;;;;17.91;75.15137;94898.44;;;;
2020/08/18 19:32:34;;;;;;;3.8;2.5;;;;;;;17.91;75.15137;94898.44;;;;
2020/08/18 19:33:36;;;;;;;3.15;2.6;;;;;;;17.88;75.80957;94902.14;;;;
2020/08/18 19:34:43;;;;;;;3.15;2.6;;;;;;;17.88;75.80957;94902.14;;;;
2020/08/18 19:35:49;;;;;;;3.15;2.6;;;;;;;17.88;75.80957;94902.14;;;;
2020/08/18 19:36:53;;;;;;;3.15;2.6;;;;;;;17.88;75.80957;94902.14;;;;
2020/08/18 19:37:58;;;;;;;3.15;2.6;;;;;;;17.88;75.80957;94902.14;;;;
2020/08/18 19:39:05;;;;;;;3.15;2.6;;;;;;;17.88;75.80957;94902.14;;;;
2020/08/18 19:40:11;;;;;;;3.15;2.6;;;;;;;17.88;75.80957;94902.14;;;;
2020/08/18 19:41:18;;;;;;;3.15;2.6;;;;;;;17.88;75.80957;94902.14;;;;
2020/08/18 19:42:23;;;;;;;3.15;2.6;;;;;;;17.88;75.80957;94902.14;;;;
2020/08/18 19:43:28;;;;;;;3.15;2.6;;;;;;;17.88;75.80957;94902.14;;;;
2020/08/18 19:44:36;;;;;;;3.15;2.6;;;;;;;17.88;75.80957;94902.14;;;;
2020/08/18 19:45:42;;;;;;;3.15;2.6;;;;;;;17.88;75.80957;94902.14;;;;
2020/08/18 19:46:46;;;;;;;3.15;2.6;;;;;;;17.88;75.80957;94902.14;;;;
2020/08/18 19:47:51;;;;;;;3.15;2.6;;;;;;;17.88;75.80957;94902.14;;;;
2020/08/18 19:48:58;;;;;;;3.15;2.6;;;;;;;17.88;75.80957;94902.14;;;;
2020/08/18 19:50:04;;;;;;;3.15;2.6;;;;;;;17.88;75.80957;94902.14;;;;
2020/08/18 19:51:12;;;;;;;3.15;2.6;;;;;;;17.88;75.80957;94902.14;;;;
2020/08/18 19:52:17;;;;;;;3.15;2.6;;;;;;;17.88;75.80957;94902.14;;;;
2020/08/18 19:53:23;;;;;;;3.15;2.6;;;;;;;17.88;75.80957;94902.14;;;;
2020/08/18 19:54:27;;;;;;;3.15;2.6;;;;;;;17.88;75.80957;94902.14;;;;
2020/08/18 19:55:31;;;;;;;3.15;2.6;;;;;;;17.88;75.80957;94902.14;;;;
2020/08/18 19:56:39;;;;;;;3.15;2.6;;;;;;;17.88;75.80957;94902.14;;;;
2020/08/18 19:57:46;;;;;;;3.15;2.6;;;;;;;17.88;75.80957;94902.14;;;;
2020/08/18 19:58:51;;;;;;;3.15;2.6;;;;;;;17.88;75.80957;94902.14;;;;
2020/08/18 19:59:52;;;;;;;3.15;2.6;;;;;;;17.88;75.80957;94902.14;;;;
2020/08/18 20:00:56;;;;;;;3.15;2.6;;;;;;;17.88;75.80957;94902.14;;;;
2020/08/18 20:02:01;;;;;;;3.15;2.6;;;;;;;17.88;75.80957;94902.14;;;;
2020/08/18 20:03:05;;;;;;;3.15;2.6;;;;;;;17.88;75.80957;94902.14;;;;
2020/08/18 20:04:10;;;;;;;3.15;2.6;;;;;;;17.88;75.80957;94902.14;;;;
2020/08/18 20:05:15;;;;;;;3.15;2.6;;;;;;;17.88;75.80957;94902.14;;;;
2020/08/18 20:06:21;;;;;;;3.15;2.6;;;;;;;17.88;75.80957;94902.14;;;;
2020/08/18 20:07:26;;;;;;;3.15;2.6;;;;;;;17.88;75.80957;94902.14;;;;
2020/08/18 20:08:32;;;;;;;3.15;2.6;;;;;;;17.88;75.80957;94902.14;;;;
2020/08/18 20:09:38;;;;;;;3.15;2.6;;;;;;;17.88;75.80957;94902.14;;;;
2020/08/18 20:10:42;;;;;;;3.15;2.6;;;;;;;17.88;75.80957;94902.14;;;;
2020/08/18 20:11:48;;;;;;;3.15;2.6;;;;;;;17.88;75.80957;94902.14;;;;
2020/08/18 20:12:53;;;;;;;3.15;2.6;;;;;;;17.88;75.80957;94902.14;;;;
2020/08/18 20:13:58;;;;;;;3.15;2.6;;;;;;;17.88;75.80957;94902.14;;;;
2020/08/18 20:15:04;;;;;;;3.15;2.6;;;;;;;17.88;75.80957;94902.14;;;;
2020/08/18 20:16:11;;;;;;;3.15;2.6;;;;;;;17.88;75.80957;94902.14;;;;
2020/08/18 20:17:17;;;;;;;3.15;2.6;;;;;;;17.88;75.80957;94902.14;;;;
